This is the latest recevied weather packets stored in our database for station/object PY2FLB-13. If no packets are shown the sender has not sent any weather packets the latest 10 day(s).
| Time | Temp. | Humidity | Pressure | Rain* | Wind** | Luminosity | Snow |
|---|---|---|---|---|---|---|---|
| 1778028469 | 26.67° C | 48% | 1018.1 hPa | - | - | - | - |
| 1778028169 | 26.67° C | 47% | 1018 hPa | - | - | - | - |
| 1778027869 | 26.67° C | 47% | 1018 hPa | - | - | - | - |
| 1778027569 | 27.22° C | 46% | 1017.8 hPa | - | - | - | - |
| 1778027269 | 27.22° C | 46% | 1017.8 hPa | - | - | - | - |
| 1778026969 | 27.22° C | 46% | 1017.7 hPa | - | - | - | - |
| 1778026669 | 27.78° C | 45% | 1017.7 hPa | - | - | - | - |
| 1778026369 | 27.78° C | 44% | 1017.5 hPa | - | - | - | - |
| 1778026069 | 27.78° C | 44% | 1017.5 hPa | - | - | - | - |
| 1778025769 | 28.33° C | 44% | 1017.4 hPa | - | - | - | - |
| 1778025469 | 28.33° C | 44% | 1017.4 hPa | - | - | - | - |
| 1778025169 | 28.33° C | 44% | 1017.4 hPa | - | - | - | - |
| 1778024871 | 27.78° C | 44% | 1017.4 hPa | - | - | - | - |
| 1778024569 | 27.78° C | 44% | 1017.4 hPa | - | - | - | - |
| 1778024269 | 28.33° C | 43% | 1017.3 hPa | - | - | - | - |
| 1778023969 | 28.33° C | 43% | 1017.3 hPa | - | - | - | - |
| 1778023669 | 28.33° C | 43% | 1017.3 hPa | - | - | - | - |
| 1778023369 | 28.33° C | 43% | 1017.3 hPa | - | - | - | - |
| 1778023069 | 28.89° C | 42% | 1017.2 hPa | - | - | - | - |
| 1778022769 | 27.78° C | 44% | 1017.4 hPa | - | - | - | - |
| 1778022469 | 28.33° C | 42% | 1017.1 hPa | - | - | - | - |
| 1778022169 | 29.44° C | 40% | 1016.9 hPa | - | - | - | - |
| 1778021869 | 28.33° C | 42% | 1017.1 hPa | - | - | - | - |
| 1778021569 | 27.78° C | 43% | 1017.2 hPa | - | - | - | - |
| 1778021269 | 27.78° C | 43% | 1017.1 hPa | - | - | - | - |
* Rain since midnight (hover to see other rain measurements)
** Current wind speed in m/s (hover to see current wind gust speed)